sensor_id;sensor_type;location;lat;lon;timestamp;P1;durP1;ratioP1;P2;durP2;ratioP2
26696;SDS011;14312;52.614;13.496;2022-09-09T00:00:46;3.05;;;2.85;;
26696;SDS011;14312;52.614;13.496;2022-09-09T00:03:51;2.95;;;2.65;;
26696;SDS011;14312;52.614;13.496;2022-09-09T00:09:52;2.60;;;2.40;;
26696;SDS011;14312;52.614;13.496;2022-09-09T00:21:36;2.45;;;2.30;;
26696;SDS011;14312;52.614;13.496;2022-09-09T00:24:28;2.38;;;2.28;;
26696;SDS011;14312;52.614;13.496;2022-09-09T00:27:29;2.60;;;2.33;;
26696;SDS011;14312;52.614;13.496;2022-09-09T00:30:22;2.75;;;2.55;;
26696;SDS011;14312;52.614;13.496;2022-09-09T00:33:11;2.72;;;2.53;;
26696;SDS011;14312;52.614;13.496;2022-09-09T00:36:00;2.80;;;2.60;;
26696;SDS011;14312;52.614;13.496;2022-09-09T00:38:49;2.50;;;2.35;;
26696;SDS011;14312;52.614;13.496;2022-09-09T00:45:09;2.42;;;2.22;;
26696;SDS011;14312;52.614;13.496;2022-09-09T00:48:12;2.28;;;2.15;;
26696;SDS011;14312;52.614;13.496;2022-09-09T00:51:15;2.55;;;2.35;;
26696;SDS011;14312;52.614;13.496;2022-09-09T00:54:27;2.65;;;2.45;;
26696;SDS011;14312;52.614;13.496;2022-09-09T00:57:26;2.42;;;2.22;;
26696;SDS011;14312;52.614;13.496;2022-09-09T01:03:38;2.67;;;2.47;;
26696;SDS011;14312;52.614;13.496;2022-09-09T01:06:30;2.42;;;2.22;;
26696;SDS011;14312;52.614;13.496;2022-09-09T01:09:19;2.65;;;2.45;;
26696;SDS011;14312;52.614;13.496;2022-09-09T01:12:16;2.78;;;2.58;;
26696;SDS011;14312;52.614;13.496;2022-09-09T01:15:17;2.75;;;2.55;;
26696;SDS011;14312;52.614;13.496;2022-09-09T01:18:10;2.85;;;2.65;;
26696;SDS011;14312;52.614;13.496;2022-09-09T01:26:51;2.97;;;2.78;;
26696;SDS011;14312;52.614;13.496;2022-09-09T01:29:41;2.60;;;2.40;;
26696;SDS011;14312;52.614;13.496;2022-09-09T01:38:36;2.92;;;2.72;;
26696;SDS011;14312;52.614;13.496;2022-09-09T01:41:22;3.20;;;2.55;;
26696;SDS011;14312;52.614;13.496;2022-09-09T01:44:08;2.50;;;2.30;;
26696;SDS011;14312;52.614;13.496;2022-09-09T01:46:55;2.60;;;2.40;;
26696;SDS011;14312;52.614;13.496;2022-09-09T01:49:41;2.95;;;2.75;;
26696;SDS011;14312;52.614;13.496;2022-09-09T01:52:27;2.75;;;2.55;;
26696;SDS011;14312;52.614;13.496;2022-09-09T01:55:12;2.83;;;2.63;;
26696;SDS011;14312;52.614;13.496;2022-09-09T02:01:15;3.13;;;2.55;;
26696;SDS011;14312;52.614;13.496;2022-09-09T02:04:09;2.40;;;2.30;;
26696;SDS011;14312;52.614;13.496;2022-09-09T02:10:28;2.95;;;2.75;;
26696;SDS011;14312;52.614;13.496;2022-09-09T02:13:18;2.72;;;2.53;;
26696;SDS011;14312;52.614;13.496;2022-09-09T02:16:07;2.65;;;2.45;;
26696;SDS011;14312;52.614;13.496;2022-09-09T02:19:02;2.65;;;2.45;;
26696;SDS011;14312;52.614;13.496;2022-09-09T02:22:02;2.78;;;2.28;;
26696;SDS011;14312;52.614;13.496;2022-09-09T02:24:49;2.58;;;2.38;;
26696;SDS011;14312;52.614;13.496;2022-09-09T02:27:40;2.60;;;2.40;;
26696;SDS011;14312;52.614;13.496;2022-09-09T02:30:30;2.40;;;2.22;;
26696;SDS011;14312;52.614;13.496;2022-09-09T02:33:19;2.63;;;2.42;;
26696;SDS011;14312;52.614;13.496;2022-09-09T02:36:08;2.70;;;2.50;;
26696;SDS011;14312;52.614;13.496;2022-09-09T02:38:56;2.28;;;2.17;;
26696;SDS011;14312;52.614;13.496;2022-09-09T02:41:42;2.38;;;2.20;;
26696;SDS011;14312;52.614;13.496;2022-09-09T02:44:28;2.15;;;2.05;;
26696;SDS011;14312;52.614;13.496;2022-09-09T02:47:16;2.60;;;2.50;;
26696;SDS011;14312;52.614;13.496;2022-09-09T02:53:24;2.28;;;2.13;;
26696;SDS011;14312;52.614;13.496;2022-09-09T02:56:20;2.35;;;2.15;;
26696;SDS011;14312;52.614;13.496;2022-09-09T02:59:11;2.13;;;2.00;;
26696;SDS011;14312;52.614;13.496;2022-09-09T03:01:57;2.85;;;2.65;;
26696;SDS011;14312;52.614;13.496;2022-09-09T03:04:43;2.72;;;2.53;;
26696;SDS011;14312;52.614;13.496;2022-09-09T03:07:29;2.53;;;2.35;;
26696;SDS011;14312;52.614;13.496;2022-09-09T03:10:15;2.42;;;2.30;;
26696;SDS011;14312;52.614;13.496;2022-09-09T03:13:03;2.60;;;2.40;;
26696;SDS011;14312;52.614;13.496;2022-09-09T03:15:50;2.40;;;2.20;;
26696;SDS011;14312;52.614;13.496;2022-09-09T03:18:37;2.35;;;2.13;;
26696;SDS011;14312;52.614;13.496;2022-09-09T03:21:23;2.42;;;2.30;;
26696;SDS011;14312;52.614;13.496;2022-09-09T03:24:08;2.47;;;2.28;;
26696;SDS011;14312;52.614;13.496;2022-09-09T03:26:55;2.10;;;2.00;;
26696;SDS011;14312;52.614;13.496;2022-09-09T03:29:41;2.40;;;2.28;;
26696;SDS011;14312;52.614;13.496;2022-09-09T03:32:27;2.25;;;2.15;;
26696;SDS011;14312;52.614;13.496;2022-09-09T03:35:12;2.35;;;2.25;;
26696;SDS011;14312;52.614;13.496;2022-09-09T03:37:58;2.75;;;2.55;;
26696;SDS011;14312;52.614;13.496;2022-09-09T03:40:49;3.00;;;2.80;;
26696;SDS011;14312;52.614;13.496;2022-09-09T03:43:36;2.65;;;2.45;;
26696;SDS011;14312;52.614;13.496;2022-09-09T03:46:23;2.72;;;2.53;;
26696;SDS011;14312;52.614;13.496;2022-09-09T03:49:10;2.42;;;2.22;;
26696;SDS011;14312;52.614;13.496;2022-09-09T03:51:56;2.83;;;2.63;;
26696;SDS011;14312;52.614;13.496;2022-09-09T03:54:43;4.40;;;2.53;;
26696;SDS011;14312;52.614;13.496;2022-09-09T03:57:28;2.63;;;2.42;;
26696;SDS011;14312;52.614;13.496;2022-09-09T04:00:15;2.53;;;2.33;;
26696;SDS011;14312;52.614;13.496;2022-09-09T04:03:01;2.70;;;2.30;;
26696;SDS011;14312;52.614;13.496;2022-09-09T04:05:51;2.40;;;2.15;;
26696;SDS011;14312;52.614;13.496;2022-09-09T04:08:37;2.20;;;2.10;;
26696;SDS011;14312;52.614;13.496;2022-09-09T04:11:23;2.35;;;2.22;;
26696;SDS011;14312;52.614;13.496;2022-09-09T04:14:09;2.17;;;1.98;;
26696;SDS011;14312;52.614;13.496;2022-09-09T04:16:55;2.67;;;2.47;;
26696;SDS011;14312;52.614;13.496;2022-09-09T04:19:42;2.60;;;2.40;;
26696;SDS011;14312;52.614;13.496;2022-09-09T04:22:28;2.67;;;2.47;;
26696;SDS011;14312;52.614;13.496;2022-09-09T04:25:14;3.53;;;2.72;;
26696;SDS011;14312;52.614;13.496;2022-09-09T04:28:00;2.58;;;2.42;;
26696;SDS011;14312;52.614;13.496;2022-09-09T04:30:46;2.25;;;2.05;;
26696;SDS011;14312;52.614;13.496;2022-09-09T04:33:31;2.00;;;1.90;;
26696;SDS011;14312;52.614;13.496;2022-09-09T04:36:18;2.40;;;2.30;;
26696;SDS011;14312;52.614;13.496;2022-09-09T04:39:04;2.47;;;2.28;;
26696;SDS011;14312;52.614;13.496;2022-09-09T04:41:50;2.58;;;1.98;;
26696;SDS011;14312;52.614;13.496;2022-09-09T04:44:36;2.08;;;1.88;;
26696;SDS011;14312;52.614;13.496;2022-09-09T04:47:22;1.90;;;1.80;;
26696;SDS011;14312;52.614;13.496;2022-09-09T04:50:08;2.13;;;2.03;;
26696;SDS011;14312;52.614;13.496;2022-09-09T04:52:54;1.92;;;1.83;;
26696;SDS011;14312;52.614;13.496;2022-09-09T04:55:40;2.05;;;1.95;;
26696;SDS011;14312;52.614;13.496;2022-09-09T04:58:25;2.40;;;2.20;;
26696;SDS011;14312;52.614;13.496;2022-09-09T05:01:15;2.70;;;2.50;;
26696;SDS011;14312;52.614;13.496;2022-09-09T05:04:03;2.67;;;2.47;;
26696;SDS011;14312;52.614;13.496;2022-09-09T05:06:49;2.50;;;2.30;;
26696;SDS011;14312;52.614;13.496;2022-09-09T05:09:35;2.40;;;2.22;;
26696;SDS011;14312;52.614;13.496;2022-09-09T05:12:21;2.65;;;2.45;;
26696;SDS011;14312;52.614;13.496;2022-09-09T05:15:09;2.70;;;2.50;;
26696;SDS011;14312;52.614;13.496;2022-09-09T05:17:59;2.47;;;2.28;;
26696;SDS011;14312;52.614;13.496;2022-09-09T05:20:46;3.42;;;2.40;;
26696;SDS011;14312;52.614;13.496;2022-09-09T05:23:32;2.40;;;2.20;;
26696;SDS011;14312;52.614;13.496;2022-09-09T05:26:21;2.50;;;2.30;;
26696;SDS011;14312;52.614;13.496;2022-09-09T05:29:08;2.97;;;2.78;;
26696;SDS011;14312;52.614;13.496;2022-09-09T05:31:54;4.13;;;2.40;;
26696;SDS011;14312;52.614;13.496;2022-09-09T05:34:39;2.90;;;2.70;;
26696;SDS011;14312;52.614;13.496;2022-09-09T05:37:25;2.92;;;2.63;;
26696;SDS011;14312;52.614;13.496;2022-09-09T05:40:11;2.90;;;2.70;;
26696;SDS011;14312;52.614;13.496;2022-09-09T05:42:59;2.85;;;2.60;;
26696;SDS011;14312;52.614;13.496;2022-09-09T05:45:45;2.80;;;2.60;;
26696;SDS011;14312;52.614;13.496;2022-09-09T05:48:36;2.25;;;2.13;;
26696;SDS011;14312;52.614;13.496;2022-09-09T05:51:24;2.63;;;2.42;;
26696;SDS011;14312;52.614;13.496;2022-09-09T05:54:12;2.53;;;2.17;;
26696;SDS011;14312;52.614;13.496;2022-09-09T05:57:00;2.72;;;2.30;;
26696;SDS011;14312;52.614;13.496;2022-09-09T05:59:46;3.88;;;2.40;;
26696;SDS011;14312;52.614;13.496;2022-09-09T06:02:32;2.25;;;2.08;;
26696;SDS011;14312;52.614;13.496;2022-09-09T06:05:18;2.30;;;2.20;;
26696;SDS011;14312;52.614;13.496;2022-09-09T06:08:04;2.22;;;2.13;;
26696;SDS011;14312;52.614;13.496;2022-09-09T06:10:50;2.50;;;2.30;;
26696;SDS011;14312;52.614;13.496;2022-09-09T06:13:38;2.10;;;2.00;;
26696;SDS011;14312;52.614;13.496;2022-09-09T06:16:25;2.03;;;1.92;;
26696;SDS011;14312;52.614;13.496;2022-09-09T06:19:12;2.40;;;2.20;;
26696;SDS011;14312;52.614;13.496;2022-09-09T06:21:58;3.08;;;2.80;;
26696;SDS011;14312;52.614;13.496;2022-09-09T06:24:44;3.08;;;2.80;;
26696;SDS011;14312;52.614;13.496;2022-09-09T06:27:30;3.13;;;2.80;;
26696;SDS011;14312;52.614;13.496;2022-09-09T06:30:16;2.10;;;2.00;;
26696;SDS011;14312;52.614;13.496;2022-09-09T06:33:02;2.38;;;2.22;;
26696;SDS011;14312;52.614;13.496;2022-09-09T06:35:52;2.50;;;2.22;;
26696;SDS011;14312;52.614;13.496;2022-09-09T06:38:38;1.88;;;1.77;;
26696;SDS011;14312;52.614;13.496;2022-09-09T06:41:26;2.22;;;2.03;;
26696;SDS011;14312;52.614;13.496;2022-09-09T06:44:13;2.25;;;2.05;;
26696;SDS011;14312;52.614;13.496;2022-09-09T06:47:00;2.42;;;2.10;;
26696;SDS011;14312;52.614;13.496;2022-09-09T06:49:46;2.58;;;2.38;;
26696;SDS011;14312;52.614;13.496;2022-09-09T06:52:32;3.15;;;2.20;;
26696;SDS011;14312;52.614;13.496;2022-09-09T06:55:18;3.10;;;2.80;;
26696;SDS011;14312;52.614;13.496;2022-09-09T06:58:07;2.58;;;1.95;;
26696;SDS011;14312;52.614;13.496;2022-09-09T07:01:04;2.58;;;2.30;;
26696;SDS011;14312;52.614;13.496;2022-09-09T07:03:52;2.42;;;2.10;;
26696;SDS011;14312;52.614;13.496;2022-09-09T07:06:40;2.20;;;2.00;;
26696;SDS011;14312;52.614;13.496;2022-09-09T07:09:31;2.35;;;2.13;;
26696;SDS011;14312;52.614;13.496;2022-09-09T07:12:17;2.40;;;2.10;;
26696;SDS011;14312;52.614;13.496;2022-09-09T07:15:02;2.53;;;2.25;;
26696;SDS011;14312;52.614;13.496;2022-09-09T07:17:49;2.63;;;2.00;;
26696;SDS011;14312;52.614;13.496;2022-09-09T07:20:35;2.00;;;1.75;;
26696;SDS011;14312;52.614;13.496;2022-09-09T07:23:21;2.13;;;1.92;;
26696;SDS011;14312;52.614;13.496;2022-09-09T07:26:13;3.53;;;2.30;;
26696;SDS011;14312;52.614;13.496;2022-09-09T07:29:01;2.22;;;2.03;;
26696;SDS011;14312;52.614;13.496;2022-09-09T07:31:47;2.58;;;1.80;;
26696;SDS011;14312;52.614;13.496;2022-09-09T07:34:33;3.03;;;1.60;;
26696;SDS011;14312;52.614;13.496;2022-09-09T07:37:19;2.20;;;1.98;;
26696;SDS011;14312;52.614;13.496;2022-09-09T07:40:05;3.05;;;1.90;;
26696;SDS011;14312;52.614;13.496;2022-09-09T07:42:51;2.58;;;2.10;;
26696;SDS011;14312;52.614;13.496;2022-09-09T07:45:36;1.80;;;1.70;;
26696;SDS011;14312;52.614;13.496;2022-09-09T07:48:22;2.25;;;1.90;;
26696;SDS011;14312;52.614;13.496;2022-09-09T07:51:10;3.05;;;2.40;;
26696;SDS011;14312;52.614;13.496;2022-09-09T07:53:58;3.25;;;2.20;;
26696;SDS011;14312;52.614;13.496;2022-09-09T07:56:47;2.17;;;1.65;;
26696;SDS011;14312;52.614;13.496;2022-09-09T07:59:33;1.88;;;1.60;;
26696;SDS011;14312;52.614;13.496;2022-09-09T08:02:18;2.13;;;1.77;;
26696;SDS011;14312;52.614;13.496;2022-09-09T08:05:04;2.63;;;1.70;;
26696;SDS011;14312;52.614;13.496;2022-09-09T08:07:51;1.70;;;1.60;;
26696;SDS011;14312;52.614;13.496;2022-09-09T08:10:37;3.38;;;1.80;;
26696;SDS011;14312;52.614;13.496;2022-09-09T08:13:22;3.30;;;2.00;;
26696;SDS011;14312;52.614;13.496;2022-09-09T08:16:09;3.58;;;1.70;;
26696;SDS011;14312;52.614;13.496;2022-09-09T08:19:00;3.00;;;1.67;;
26696;SDS011;14312;52.614;13.496;2022-09-09T08:21:46;2.92;;;1.90;;
26696;SDS011;14312;52.614;13.496;2022-09-09T08:24:32;3.47;;;1.80;;
26696;SDS011;14312;52.614;13.496;2022-09-09T08:27:17;3.60;;;2.20;;
26696;SDS011;14312;52.614;13.496;2022-09-09T08:30:03;2.17;;;1.73;;
26696;SDS011;14312;52.614;13.496;2022-09-09T08:32:50;1.60;;;1.50;;
26696;SDS011;14312;52.614;13.496;2022-09-09T08:35:36;4.05;;;1.50;;
26696;SDS011;14312;52.614;13.496;2022-09-09T08:38:23;2.13;;;1.45;;
26696;SDS011;14312;52.614;13.496;2022-09-09T08:50:22;3.50;;;1.83;;
26696;SDS011;14312;52.614;13.496;2022-09-09T08:53:26;2.42;;;1.65;;
26696;SDS011;14312;52.614;13.496;2022-09-09T08:56:18;2.55;;;1.33;;
26696;SDS011;14312;52.614;13.496;2022-09-09T08:59:08;2.15;;;1.75;;
26696;SDS011;14312;52.614;13.496;2022-09-09T09:02:03;3.33;;;1.70;;
26696;SDS011;14312;52.614;13.496;2022-09-09T09:08:16;2.00;;;1.30;;
26696;SDS011;14312;52.614;13.496;2022-09-09T09:11:09;2.05;;;1.50;;
26696;SDS011;14312;52.614;13.496;2022-09-09T09:14:00;1.88;;;1.40;;
26696;SDS011;14312;52.614;13.496;2022-09-09T09:16:53;3.03;;;1.40;;
26696;SDS011;14312;52.614;13.496;2022-09-09T09:19:44;1.85;;;1.25;;
26696;SDS011;14312;52.614;13.496;2022-09-09T09:22:34;2.92;;;1.52;;
26696;SDS011;14312;52.614;13.496;2022-09-09T09:25:23;3.28;;;1.60;;
26696;SDS011;14312;52.614;13.496;2022-09-09T09:28:24;3.45;;;1.60;;
26696;SDS011;14312;52.614;13.496;2022-09-09T09:31:12;2.50;;;1.70;;
26696;SDS011;14312;52.614;13.496;2022-09-09T09:33:59;2.15;;;1.60;;
26696;SDS011;14312;52.614;13.496;2022-09-09T09:37:22;1.52;;;1.40;;
26696;SDS011;14312;52.614;13.496;2022-09-09T09:40:11;3.42;;;1.60;;
26696;SDS011;14312;52.614;13.496;2022-09-09T09:43:02;2.45;;;1.52;;
26696;SDS011;14312;52.614;13.496;2022-09-09T09:45:54;2.47;;;1.63;;
26696;SDS011;14312;52.614;13.496;2022-09-09T09:48:40;1.45;;;1.35;;
26696;SDS011;14312;52.614;13.496;2022-09-09T09:51:26;1.58;;;1.40;;
26696;SDS011;14312;52.614;13.496;2022-09-09T09:54:17;1.88;;;1.55;;
26696;SDS011;14312;52.614;13.496;2022-09-09T09:57:10;1.33;;;1.23;;
26696;SDS011;14312;52.614;13.496;2022-09-09T10:00:04;1.80;;;1.20;;
26696;SDS011;14312;52.614;13.496;2022-09-09T10:03:00;1.85;;;1.27;;
26696;SDS011;14312;52.614;13.496;2022-09-09T10:05:46;2.67;;;1.60;;
26696;SDS011;14312;52.614;13.496;2022-09-09T10:08:33;1.85;;;1.23;;
26696;SDS011;14312;52.614;13.496;2022-09-09T10:14:45;1.75;;;1.30;;
26696;SDS011;14312;52.614;13.496;2022-09-09T10:17:46;1.95;;;1.42;;
26696;SDS011;14312;52.614;13.496;2022-09-09T10:20:56;3.47;;;1.60;;
26696;SDS011;14312;52.614;13.496;2022-09-09T10:30:46;2.97;;;1.60;;
26696;SDS011;14312;52.614;13.496;2022-09-09T10:37:01;2.05;;;1.20;;
26696;SDS011;14312;52.614;13.496;2022-09-09T10:39:50;2.92;;;1.35;;
26696;SDS011;14312;52.614;13.496;2022-09-09T10:42:50;2.67;;;1.35;;
26696;SDS011;14312;52.614;13.496;2022-09-09T10:45:39;1.33;;;1.23;;
26696;SDS011;14312;52.614;13.496;2022-09-09T10:48:46;2.15;;;1.40;;
26696;SDS011;14312;52.614;13.496;2022-09-09T10:52:19;2.45;;;1.10;;
26696;SDS011;14312;52.614;13.496;2022-09-09T10:55:17;3.58;;;1.45;;
26696;SDS011;14312;52.614;13.496;2022-09-09T10:58:05;1.52;;;1.15;;
26696;SDS011;14312;52.614;13.496;2022-09-09T11:00:56;2.25;;;1.50;;
26696;SDS011;14312;52.614;13.496;2022-09-09T11:03:54;1.92;;;1.33;;
26696;SDS011;14312;52.614;13.496;2022-09-09T11:06:48;1.95;;;1.20;;
26696;SDS011;14312;52.614;13.496;2022-09-09T11:09:41;2.00;;;1.20;;
26696;SDS011;14312;52.614;13.496;2022-09-09T11:12:38;1.55;;;1.25;;
26696;SDS011;14312;52.614;13.496;2022-09-09T11:15:31;1.63;;;1.27;;
26696;SDS011;14312;52.614;13.496;2022-09-09T11:18:24;2.20;;;1.00;;
26696;SDS011;14312;52.614;13.496;2022-09-09T11:21:14;2.22;;;1.10;;
26696;SDS011;14312;52.614;13.496;2022-09-09T11:24:12;2.15;;;1.15;;
26696;SDS011;14312;52.614;13.496;2022-09-09T11:27:09;1.98;;;1.27;;
26696;SDS011;14312;52.614;13.496;2022-09-09T11:33:29;2.15;;;1.25;;
26696;SDS011;14312;52.614;13.496;2022-09-09T11:36:53;1.10;;;1.00;;
26696;SDS011;14312;52.614;13.496;2022-09-09T11:39:57;1.85;;;1.20;;
26696;SDS011;14312;52.614;13.496;2022-09-09T11:42:46;2.65;;;1.20;;
26696;SDS011;14312;52.614;13.496;2022-09-09T11:45:35;1.67;;;1.08;;
26696;SDS011;14312;52.614;13.496;2022-09-09T11:48:26;2.25;;;1.30;;
26696;SDS011;14312;52.614;13.496;2022-09-09T11:57:36;1.30;;;1.20;;
26696;SDS011;14312;52.614;13.496;2022-09-09T12:00:30;2.72;;;1.35;;
26696;SDS011;14312;52.614;13.496;2022-09-09T12:06:30;2.00;;;0.90;;
26696;SDS011;14312;52.614;13.496;2022-09-09T12:09:19;1.08;;;0.90;;
26696;SDS011;14312;52.614;13.496;2022-09-09T12:12:23;1.67;;;1.40;;
26696;SDS011;14312;52.614;13.496;2022-09-09T12:17:57;1.55;;;1.10;;
26696;SDS011;14312;52.614;13.496;2022-09-09T12:20:52;2.60;;;1.13;;
26696;SDS011;14312;52.614;13.496;2022-09-09T12:23:59;1.95;;;1.00;;
26696;SDS011;14312;52.614;13.496;2022-09-09T12:27:02;1.20;;;1.00;;
26696;SDS011;14312;52.614;13.496;2022-09-09T12:30:01;2.22;;;1.00;;
26696;SDS011;14312;52.614;13.496;2022-09-09T12:33:34;1.05;;;0.80;;
26696;SDS011;14312;52.614;13.496;2022-09-09T12:36:19;1.13;;;1.02;;
26696;SDS011;14312;52.614;13.496;2022-09-09T12:39:49;1.38;;;1.02;;
26696;SDS011;14312;52.614;13.496;2022-09-09T12:42:31;1.15;;;0.82;;
26696;SDS011;14312;52.614;13.496;2022-09-09T12:45:22;0.77;;;0.70;;
26696;SDS011;14312;52.614;13.496;2022-09-09T12:48:10;1.95;;;1.02;;
26696;SDS011;14312;52.614;13.496;2022-09-09T12:50:57;1.38;;;0.90;;
26696;SDS011;14312;52.614;13.496;2022-09-09T12:53:43;1.33;;;0.90;;
26696;SDS011;14312;52.614;13.496;2022-09-09T12:56:31;1.27;;;1.00;;
26696;SDS011;14312;52.614;13.496;2022-09-09T12:59:34;1.00;;;0.90;;
26696;SDS011;14312;52.614;13.496;2022-09-09T13:02:25;3.08;;;1.30;;
26696;SDS011;14312;52.614;13.496;2022-09-09T13:05:15;0.95;;;0.80;;
26696;SDS011;14312;52.614;13.496;2022-09-09T13:08:04;1.25;;;0.90;;
26696;SDS011;14312;52.614;13.496;2022-09-09T13:10:54;2.70;;;1.10;;
26696;SDS011;14312;52.614;13.496;2022-09-09T13:13:52;1.23;;;1.00;;
26696;SDS011;14312;52.614;13.496;2022-09-09T13:16:41;1.92;;;0.90;;
26696;SDS011;14312;52.614;13.496;2022-09-09T13:19:28;0.95;;;0.70;;
26696;SDS011;14312;52.614;13.496;2022-09-09T13:22:31;1.58;;;0.98;;
26696;SDS011;14312;52.614;13.496;2022-09-09T13:28:21;1.10;;;0.80;;
26696;SDS011;14312;52.614;13.496;2022-09-09T13:31:20;1.67;;;1.13;;
26696;SDS011;14312;52.614;13.496;2022-09-09T13:34:31;1.17;;;0.95;;
26696;SDS011;14312;52.614;13.496;2022-09-09T13:37:23;1.60;;;0.90;;
26696;SDS011;14312;52.614;13.496;2022-09-09T13:40:17;1.80;;;0.95;;
26696;SDS011;14312;52.614;13.496;2022-09-09T13:43:04;1.58;;;0.90;;
26696;SDS011;14312;52.614;13.496;2022-09-09T13:45:57;0.88;;;0.88;;
26696;SDS011;14312;52.614;13.496;2022-09-09T13:48:53;0.82;;;0.77;;
26696;SDS011;14312;52.614;13.496;2022-09-09T13:51:44;0.75;;;0.70;;
26696;SDS011;14312;52.614;13.496;2022-09-09T13:54:32;1.00;;;0.90;;
26696;SDS011;14312;52.614;13.496;2022-09-09T13:57:19;1.38;;;0.82;;
26696;SDS011;14312;52.614;13.496;2022-09-09T14:00:05;1.23;;;0.93;;
26696;SDS011;14312;52.614;13.496;2022-09-09T14:02:54;1.02;;;0.90;;
26696;SDS011;14312;52.614;13.496;2022-09-09T14:05:43;0.80;;;0.80;;
26696;SDS011;14312;52.614;13.496;2022-09-09T14:08:30;0.82;;;0.82;;
26696;SDS011;14312;52.614;13.496;2022-09-09T14:11:22;1.10;;;0.85;;
26696;SDS011;14312;52.614;13.496;2022-09-09T14:14:08;0.90;;;0.77;;
26696;SDS011;14312;52.614;13.496;2022-09-09T14:16:54;1.23;;;0.85;;
26696;SDS011;14312;52.614;13.496;2022-09-09T14:19:39;1.08;;;0.70;;
26696;SDS011;14312;52.614;13.496;2022-09-09T14:22:25;0.82;;;0.82;;
26696;SDS011;14312;52.614;13.496;2022-09-09T14:25:11;0.80;;;0.80;;
26696;SDS011;14312;52.614;13.496;2022-09-09T14:27:58;1.38;;;0.70;;
26696;SDS011;14312;52.614;13.496;2022-09-09T14:30:44;1.48;;;1.00;;
26696;SDS011;14312;52.614;13.496;2022-09-09T14:33:30;1.13;;;1.00;;
26696;SDS011;14312;52.614;13.496;2022-09-09T14:36:16;1.52;;;0.80;;
26696;SDS011;14312;52.614;13.496;2022-09-09T14:39:02;0.88;;;0.80;;
26696;SDS011;14312;52.614;13.496;2022-09-09T14:41:49;1.13;;;0.93;;
26696;SDS011;14312;52.614;13.496;2022-09-09T14:44:35;1.38;;;0.90;;
26696;SDS011;14312;52.614;13.496;2022-09-09T14:47:21;0.80;;;0.80;;
26696;SDS011;14312;52.614;13.496;2022-09-09T14:50:07;1.25;;;1.00;;
26696;SDS011;14312;52.614;13.496;2022-09-09T14:52:53;1.30;;;0.90;;
26696;SDS011;14312;52.614;13.496;2022-09-09T14:55:39;1.25;;;0.93;;
26696;SDS011;14312;52.614;13.496;2022-09-09T14:58:25;0.98;;;0.70;;
26696;SDS011;14312;52.614;13.496;2022-09-09T15:01:17;1.38;;;0.88;;
26696;SDS011;14312;52.614;13.496;2022-09-09T15:04:04;0.90;;;0.77;;
26696;SDS011;14312;52.614;13.496;2022-09-09T15:06:51;1.85;;;1.08;;
26696;SDS011;14312;52.614;13.496;2022-09-09T15:09:38;1.02;;;0.80;;
26696;SDS011;14312;52.614;13.496;2022-09-09T15:12:24;0.80;;;0.70;;
26696;SDS011;14312;52.614;13.496;2022-09-09T15:15:10;1.67;;;0.80;;
26696;SDS011;14312;52.614;13.496;2022-09-09T15:17:55;0.75;;;0.70;;
26696;SDS011;14312;52.614;13.496;2022-09-09T15:20:45;0.85;;;0.80;;
26696;SDS011;14312;52.614;13.496;2022-09-09T15:23:32;1.33;;;0.85;;
26696;SDS011;14312;52.614;13.496;2022-09-09T15:26:19;0.80;;;0.80;;
26696;SDS011;14312;52.614;13.496;2022-09-09T15:29:06;1.15;;;0.90;;
26696;SDS011;14312;52.614;13.496;2022-09-09T15:31:54;1.42;;;0.80;;
26696;SDS011;14312;52.614;13.496;2022-09-09T15:34:40;0.90;;;0.80;;
26696;SDS011;14312;52.614;13.496;2022-09-09T15:37:27;1.15;;;0.90;;
26696;SDS011;14312;52.614;13.496;2022-09-09T15:40:13;1.15;;;0.82;;
26696;SDS011;14312;52.614;13.496;2022-09-09T15:42:59;1.05;;;0.80;;
26696;SDS011;14312;52.614;13.496;2022-09-09T15:45:45;1.30;;;1.00;;
26696;SDS011;14312;52.614;13.496;2022-09-09T15:48:34;1.42;;;0.90;;
26696;SDS011;14312;52.614;13.496;2022-09-09T15:51:20;1.60;;;1.00;;
26696;SDS011;14312;52.614;13.496;2022-09-09T15:54:06;0.95;;;0.70;;
26696;SDS011;14312;52.614;13.496;2022-09-09T15:56:56;1.00;;;0.75;;
26696;SDS011;14312;52.614;13.496;2022-09-09T15:59:44;1.17;;;0.77;;
26696;SDS011;14312;52.614;13.496;2022-09-09T16:02:30;1.45;;;1.00;;
26696;SDS011;14312;52.614;13.496;2022-09-09T16:05:16;3.50;;;0.70;;
26696;SDS011;14312;52.614;13.496;2022-09-09T16:08:02;1.45;;;0.75;;
26696;SDS011;14312;52.614;13.496;2022-09-09T16:10:48;1.10;;;0.80;;
26696;SDS011;14312;52.614;13.496;2022-09-09T16:13:35;0.63;;;0.60;;
26696;SDS011;14312;52.614;13.496;2022-09-09T16:16:23;0.73;;;0.63;;
26696;SDS011;14312;52.614;13.496;2022-09-09T16:19:11;0.60;;;0.60;;
26696;SDS011;14312;52.614;13.496;2022-09-09T16:21:58;0.68;;;0.68;;
26696;SDS011;14312;52.614;13.496;2022-09-09T16:24:44;1.13;;;0.65;;
26696;SDS011;14312;52.614;13.496;2022-09-09T16:27:30;0.70;;;0.70;;
26696;SDS011;14312;52.614;13.496;2022-09-09T16:30:16;0.63;;;0.55;;
26696;SDS011;14312;52.614;13.496;2022-09-09T16:33:02;0.70;;;0.70;;
26696;SDS011;14312;52.614;13.496;2022-09-09T16:35:48;0.80;;;0.70;;
26696;SDS011;14312;52.614;13.496;2022-09-09T16:38:34;0.70;;;0.70;;
26696;SDS011;14312;52.614;13.496;2022-09-09T16:41:21;1.25;;;1.00;;
26696;SDS011;14312;52.614;13.496;2022-09-09T16:44:08;1.38;;;1.05;;
26696;SDS011;14312;52.614;13.496;2022-09-09T16:46:54;1.13;;;0.80;;
26696;SDS011;14312;52.614;13.496;2022-09-09T16:49:40;0.90;;;0.73;;
26696;SDS011;14312;52.614;13.496;2022-09-09T16:52:26;0.93;;;0.80;;
26696;SDS011;14312;52.614;13.496;2022-09-09T16:55:12;0.88;;;0.80;;
26696;SDS011;14312;52.614;13.496;2022-09-09T16:57:58;0.93;;;0.90;;
26696;SDS011;14312;52.614;13.496;2022-09-09T17:00:43;0.90;;;0.77;;
26696;SDS011;14312;52.614;13.496;2022-09-09T17:03:31;1.63;;;0.98;;
26696;SDS011;14312;52.614;13.496;2022-09-09T17:06:18;0.70;;;0.60;;
26696;SDS011;14312;52.614;13.496;2022-09-09T17:09:06;0.80;;;0.80;;
26696;SDS011;14312;52.614;13.496;2022-09-09T17:11:56;3.72;;;0.77;;
26696;SDS011;14312;52.614;13.496;2022-09-09T17:14:42;0.80;;;0.80;;
26696;SDS011;14312;52.614;13.496;2022-09-09T17:17:31;1.27;;;0.60;;
26696;SDS011;14312;52.614;13.496;2022-09-09T17:20:16;1.08;;;1.02;;
26696;SDS011;14312;52.614;13.496;2022-09-09T17:23:02;1.42;;;0.82;;
26696;SDS011;14312;52.614;13.496;2022-09-09T17:25:58;0.80;;;0.80;;
26696;SDS011;14312;52.614;13.496;2022-09-09T17:28:45;1.10;;;0.90;;
26696;SDS011;14312;52.614;13.496;2022-09-09T17:31:31;0.70;;;0.70;;
26696;SDS011;14312;52.614;13.496;2022-09-09T17:34:18;2.65;;;0.82;;
26696;SDS011;14312;52.614;13.496;2022-09-09T17:37:04;1.10;;;1.00;;
26696;SDS011;14312;52.614;13.496;2022-09-09T17:39:51;0.70;;;0.70;;
26696;SDS011;14312;52.614;13.496;2022-09-09T17:42:37;0.77;;;0.77;;
26696;SDS011;14312;52.614;13.496;2022-09-09T17:45:22;0.95;;;0.85;;
26696;SDS011;14312;52.614;13.496;2022-09-09T17:48:08;1.63;;;0.90;;
26696;SDS011;14312;52.614;13.496;2022-09-09T17:50:57;0.80;;;0.80;;
26696;SDS011;14312;52.614;13.496;2022-09-09T17:53:45;1.52;;;0.93;;
26696;SDS011;14312;52.614;13.496;2022-09-09T17:56:32;0.80;;;0.80;;
26696;SDS011;14312;52.614;13.496;2022-09-09T17:59:19;1.00;;;0.90;;
26696;SDS011;14312;52.614;13.496;2022-09-09T18:02:05;1.02;;;0.90;;
26696;SDS011;14312;52.614;13.496;2022-09-09T18:04:51;1.95;;;0.80;;
26696;SDS011;14312;52.614;13.496;2022-09-09T18:07:37;0.80;;;0.75;;
26696;SDS011;14312;52.614;13.496;2022-09-09T18:10:24;0.70;;;0.70;;